Amherst, Wisconsin
Current Conditions -  °F | °C
As of 5:55 PM on Monday 20 Oct 2014 (Local Time) from KSTE Reporting Station
Overcast Overcast  
Wind Chill: 46°   Ceiling: 4000
Heat Index: 48°   Visibility: 10mi
Dew Point: 39°   Wind: 6mph
Humidity: 70%   Direction: 330°NNW
Pressure: 29.99"   Gusts: NA
Location:  44.45°N, 89.28°W
Report Text: KSTE 202255Z AUTO 33005KT 10SM OVC040 09/04 A2999 RMK AO2 P0001 T00910038
Loading
Personal Weather Stations






























Interactive Weather Map
Tropical Storm Tracking
New forecast layout! Learn more

10-Day Weather Forecast

Advertisements
Track Severe Weather on mobile